Time;durP1;ratioP1;P1;durP2;ratioP2;P2;SDS_P1;SDS_P2;PMS_P1;PMS_P2;Temp;Humidity;BMP_temperature;BMP_pressure;BME280_temperature;BME280_humidity;BME280_pressure;Samples;Min_cycle;Max_cycle;Signal;HPM_P1;HPM_P2
2022/01/23 00:00:44;;;;;;;17.23;11.30;;;5.90;99.90;;;;;;5050511;28;20198;-47
2022/01/23 00:03:17;;;;;;;14.97;11.17;;;5.90;99.90;;;;;;5041481;28;20191;-44
2022/01/23 00:05:46;;;;;;;16.23;10.67;;;5.90;99.90;;;;;;5038633;28;20226;-44
2022/01/23 00:08:15;;;;;;;16.40;10.80;;;5.90;99.90;;;;;;5043369;28;20257;-45
2022/01/23 00:10:43;;;;;;;16.20;10.33;;;5.90;99.90;;;;;;5043601;28;20221;-48
2022/01/23 00:13:14;;;;;;;14.20;10.17;;;5.90;99.90;;;;;;5041455;28;20198;-47
2022/01/23 00:18:28;;;;;;;16.60;10.47;;;5.90;99.90;;;;;;5043553;28;20225;-44
2022/01/23 00:20:56;;;;;;;12.70;9.83;;;5.90;99.90;;;;;;5032034;28;20203;-49
2022/01/23 00:23:34;;;;;;;23.10;10.53;;;5.90;99.90;;;;;;5049602;28;20257;-46
2022/01/23 00:31:31;;;;;;;11.57;8.40;;;5.90;99.90;;;;;;5052141;28;20282;-45
2022/01/23 00:33:59;;;;;;;15.10;9.20;;;5.90;99.90;;;;;;5041517;28;20265;-44
2022/01/23 00:36:29;;;;;;;12.63;8.83;;;5.90;99.90;;;;;;5041642;28;20230;-48
2022/01/23 00:38:55;;;;;;;11.77;8.13;;;6.00;99.90;;;;;;5047492;28;20301;-46
2022/01/23 00:41:23;;;;;;;12.83;8.20;;;5.90;99.90;;;;;;5047537;28;20283;-50
2022/01/23 00:43:52;;;;;;;12.67;8.37;;;6.00;99.90;;;;;;5046363;28;20199;-47
2022/01/23 00:46:32;;;;;;;15.00;8.23;;;6.00;99.90;;;;;;5046741;28;20225;-48
2022/01/23 00:49:24;;;;;;;14.17;8.17;;;6.00;99.90;;;;;;5056420;28;20825;-45
2022/01/23 00:51:53;;;;;;;14.47;7.53;;;6.00;99.90;;;;;;5036889;28;20278;-45
2022/01/23 00:54:20;;;;;;;8.83;7.47;;;6.00;99.90;;;;;;5047232;28;20904;-47
2022/01/23 00:56:47;;;;;;;14.43;7.10;;;6.00;99.90;;;;;;5044415;28;20219;-45
2022/01/23 00:59:14;;;;;;;12.23;7.93;;;6.00;99.90;;;;;;5051859;28;20298;-46
2022/01/23 01:01:41;;;;;;;13.87;7.67;;;6.00;99.90;;;;;;5052355;28;20200;-44
2022/01/23 01:04:08;;;;;;;8.93;6.73;;;6.00;99.90;;;;;;5043025;28;20233;-47
2022/01/23 01:06:35;;;;;;;13.90;7.97;;;6.00;99.90;;;;;;5038614;28;20218;-47
2022/01/23 01:09:06;;;;;;;12.77;7.73;;;6.00;99.90;;;;;;5054363;28;20192;-47
2022/01/23 01:11:55;;;;;;;13.50;7.73;;;6.00;99.90;;;;;;5045042;28;20619;-45
2022/01/23 01:14:43;;;;;;;13.73;8.67;;;6.00;99.90;;;;;;5045569;28;20222;-47
2022/01/23 01:17:17;;;;;;;10.50;7.50;;;6.00;99.90;;;;;;5042991;28;20199;-46
2022/01/23 01:31:01;;;;;;;11.60;8.17;;;6.00;99.90;;;;;;5051431;28;20194;-49
2022/01/23 01:33:42;;;;;;;8.57;7.20;;;6.00;99.90;;;;;;5048006;28;20199;-45
2022/01/23 01:36:21;;;;;;;15.63;8.83;;;6.00;99.90;;;;;;5038064;28;20223;-45
2022/01/23 01:38:49;;;;;;;9.63;7.23;;;6.10;99.90;;;;;;5047748;28;20211;-46
2022/01/23 01:41:19;;;;;;;11.40;8.00;;;6.10;99.90;;;;;;5044312;28;20569;-45
2022/01/23 01:43:46;;;;;;;12.93;7.60;;;6.10;99.90;;;;;;5043285;28;20213;-47
2022/01/23 01:46:14;;;;;;;10.03;7.97;;;6.10;99.90;;;;;;5043453;28;20215;-50
2022/01/23 01:48:48;;;;;;;10.30;7.20;;;6.10;99.90;;;;;;5042083;28;20281;-47
2022/01/23 01:51:17;;;;;;;9.93;6.73;;;6.10;99.90;;;;;;5033348;28;20217;-49
2022/01/23 01:53:52;;;;;;;11.07;7.40;;;6.10;99.90;;;;;;5051087;28;20277;-44
2022/01/23 01:56:21;;;;;;;9.47;7.43;;;6.10;99.90;;;;;;5044267;28;20722;-47
2022/01/23 02:10:13;;;;;;;9.40;6.70;;;6.10;99.90;;;;;;5044590;28;20192;-48
2022/01/23 02:13:09;;;;;;;10.37;6.80;;;6.10;99.90;;;;;;5045115;28;20213;-46
2022/01/23 02:24:58;;;;;;;10.83;7.43;;;6.20;99.90;;;;;;5021851;28;20284;-47
2022/01/23 02:52:31;;;;;;;14.77;8.63;;;6.20;99.90;;;;;;5061576;28;20509;-49
2022/01/23 02:55:10;;;;;;;12.60;7.70;;;6.20;99.90;;;;;;5035178;28;20219;-45
2022/01/23 02:57:51;;;;;;;16.30;8.27;;;6.20;99.90;;;;;;5052712;28;20233;-48
2022/01/23 03:00:23;;;;;;;15.00;8.83;;;6.20;99.90;;;;;;5049709;28;20207;-47
2022/01/23 03:03:04;;;;;;;13.70;7.90;;;6.20;99.90;;;;;;5046875;28;20202;-48
2022/01/23 03:05:39;;;;;;;11.23;8.03;;;6.20;99.90;;;;;;5044662;28;20250;-46
2022/01/23 03:08:20;;;;;;;12.13;7.80;;;6.20;99.90;;;;;;5030908;28;23655;-50
2022/01/23 03:10:59;;;;;;;11.43;7.67;;;6.20;99.90;;;;;;5050959;28;20195;-45
2022/01/23 03:13:46;;;;;;;13.23;8.87;;;6.20;99.90;;;;;;5044583;28;20233;-46
2022/01/23 03:24:50;;;;;;;11.90;8.10;;;6.20;99.90;;;;;;5045970;28;21642;-46
2022/01/23 03:27:53;;;;;;;13.43;8.33;;;6.20;99.90;;;;;;5043716;28;20726;-48
2022/01/23 03:30:24;;;;;;;13.47;7.60;;;6.20;99.90;;;;;;5046510;28;20199;-46
2022/01/23 03:32:52;;;;;;;14.87;8.40;;;6.20;99.90;;;;;;5041290;28;20226;-46
2022/01/23 03:35:21;;;;;;;12.77;7.57;;;6.30;99.90;;;;;;5042574;28;20222;-46
2022/01/23 03:37:48;;;;;;;13.70;8.13;;;6.30;99.90;;;;;;5034148;28;20203;-50
2022/01/23 03:40:15;;;;;;;15.60;7.97;;;6.30;99.90;;;;;;5043115;28;20200;-49
2022/01/23 03:42:45;;;;;;;13.60;7.60;;;6.30;99.90;;;;;;5051924;28;20207;-47
2022/01/23 03:45:37;;;;;;;15.97;7.80;;;6.30;99.90;;;;;;5038637;28;20300;-47
2022/01/23 03:50:49;;;;;;;14.03;8.03;;;6.30;99.90;;;;;;5039151;28;20199;-46
2022/01/23 03:53:34;;;;;;;13.93;8.13;;;6.30;99.90;;;;;;5046829;28;20203;-47
2022/01/23 03:56:01;;;;;;;13.57;7.93;;;6.30;99.90;;;;;;5039069;28;20218;-46
2022/01/23 03:58:31;;;;;;;13.43;8.13;;;6.30;99.90;;;;;;5047087;28;20771;-45
2022/01/23 04:00:59;;;;;;;14.40;7.23;;;6.30;99.90;;;;;;5047136;28;20198;-46
2022/01/23 04:03:25;;;;;;;15.30;7.93;;;6.30;99.90;;;;;;5047652;28;20203;-43
2022/01/23 04:05:53;;;;;;;12.30;7.60;;;6.30;99.90;;;;;;5038750;28;20223;-49
2022/01/23 04:08:21;;;;;;;13.50;7.63;;;6.30;99.90;;;;;;5042582;28;20203;-47
2022/01/23 04:10:48;;;;;;;14.40;8.20;;;6.40;99.90;;;;;;5031310;28;20198;-50
2022/01/23 04:13:20;;;;;;;17.07;7.73;;;6.30;99.90;;;;;;5047537;28;20233;-46
2022/01/23 04:15:54;;;;;;;15.73;7.60;;;6.30;99.90;;;;;;5044350;28;20230;-47
2022/01/23 04:19:07;;;;;;;12.73;7.57;;;6.40;99.90;;;;;;5039768;28;20703;-45
2022/01/23 04:33:09;;;;;;;13.10;7.03;;;6.40;99.90;;;;;;5053197;28;20423;-48
2022/01/23 04:47:15;;;;;;;13.40;8.03;;;6.40;99.90;;;;;;5046547;28;20219;-46
2022/01/23 05:00:49;;;;;;;10.93;7.70;;;6.50;99.90;;;;;;5051408;28;20199;-48
2022/01/23 05:06:23;;;;;;;14.10;8.57;;;6.50;99.90;;;;;;5053169;28;20335;-44
2022/01/23 05:09:10;;;;;;;11.47;7.50;;;6.50;99.90;;;;;;5058794;28;20197;-46
2022/01/23 05:11:56;;;;;;;12.60;8.17;;;6.50;99.90;;;;;;5046544;28;20741;-44
2022/01/23 05:14:30;;;;;;;15.47;9.03;;;6.50;99.90;;;;;;5049274;28;20196;-46
2022/01/23 05:16:57;;;;;;;13.63;8.43;;;6.50;99.90;;;;;;5039005;28;20385;-45
2022/01/23 05:19:25;;;;;;;11.90;7.87;;;6.50;99.90;;;;;;5040053;28;20276;-45
2022/01/23 05:22:17;;;;;;;13.77;7.70;;;6.60;99.90;;;;;;5043233;28;20204;-45
2022/01/23 05:24:49;;;;;;;13.17;8.10;;;6.60;99.90;;;;;;5043142;28;20199;-48
2022/01/23 05:27:17;;;;;;;12.40;8.07;;;6.60;99.90;;;;;;5042593;28;20294;-46
2022/01/23 05:29:44;;;;;;;10.07;7.77;;;6.60;99.90;;;;;;5035883;28;20563;-45
2022/01/23 05:32:12;;;;;;;16.43;8.70;;;6.60;99.90;;;;;;5049740;28;20200;-49
2022/01/23 05:34:39;;;;;;;14.63;7.70;;;6.60;99.90;;;;;;5044718;28;20210;-44
2022/01/23 05:37:15;;;;;;;13.03;8.33;;;6.60;99.90;;;;;;5049436;28;20201;-47
2022/01/23 05:39:45;;;;;;;8.83;7.00;;;6.60;99.90;;;;;;5060373;28;20672;-45
2022/01/23 05:42:12;;;;;;;9.20;6.30;;;6.60;99.90;;;;;;5060646;28;20194;-44
2022/01/23 05:44:42;;;;;;;8.27;6.43;;;6.60;99.90;;;;;;5042658;28;20261;-45
2022/01/23 05:47:12;;;;;;;14.17;7.23;;;6.60;99.90;;;;;;5040327;28;20199;-45
2022/01/23 05:49:51;;;;;;;9.80;5.60;;;6.70;99.90;;;;;;5048743;28;20551;-45
2022/01/23 05:52:32;;;;;;;10.30;7.20;;;6.60;99.90;;;;;;5046170;28;20245;-46
2022/01/23 05:55:07;;;;;;;10.60;6.47;;;6.70;99.90;;;;;;5047115;28;20314;-46
2022/01/23 05:57:42;;;;;;;9.93;6.30;;;6.70;99.90;;;;;;5042852;28;20226;-47
2022/01/23 06:00:15;;;;;;;17.20;7.13;;;6.70;99.90;;;;;;5043708;28;20210;-45
2022/01/23 06:02:51;;;;;;;7.57;5.90;;;6.70;99.90;;;;;;5040997;28;20199;-45
2022/01/23 06:05:21;;;;;;;12.33;7.37;;;6.70;99.90;;;;;;5039035;28;20231;-46
2022/01/23 06:07:58;;;;;;;8.47;5.80;;;6.70;99.90;;;;;;5043820;28;20194;-48
2022/01/23 06:10:27;;;;;;;10.30;6.43;;;6.70;99.90;;;;;;5055522;28;20202;-45
2022/01/23 06:12:54;;;;;;;12.73;5.70;;;6.70;99.90;;;;;;5046044;28;20210;-46
2022/01/23 06:15:21;;;;;;;8.47;5.67;;;6.70;99.90;;;;;;5039689;28;20665;-48
2022/01/23 06:17:48;;;;;;;8.77;5.40;;;6.70;99.90;;;;;;5049329;28;20214;-45
2022/01/23 06:20:33;;;;;;;9.53;5.27;;;6.70;99.90;;;;;;5047437;28;20226;-49
2022/01/23 06:23:20;;;;;;;9.90;5.20;;;6.70;99.90;;;;;;5040017;28;20222;-46
2022/01/23 06:26:18;;;;;;;7.20;4.23;;;6.70;99.90;;;;;;5049151;28;20227;-44
2022/01/23 06:28:54;;;;;;;10.73;4.70;;;6.70;99.90;;;;;;5038358;28;20250;-47
2022/01/23 06:31:22;;;;;;;9.63;5.90;;;6.80;99.90;;;;;;5047444;28;20656;-45
2022/01/23 06:33:48;;;;;;;8.17;4.57;;;6.80;99.90;;;;;;5049297;28;20575;-48
2022/01/23 06:36:15;;;;;;;7.80;5.00;;;6.80;99.90;;;;;;5045564;28;20234;-45
2022/01/23 06:38:43;;;;;;;7.80;4.43;;;6.80;99.90;;;;;;5034395;28;20305;-47
2022/01/23 06:41:10;;;;;;;7.93;4.90;;;6.80;99.90;;;;;;5043536;28;20221;-44
2022/01/23 06:43:46;;;;;;;7.30;4.90;;;6.80;99.90;;;;;;5045261;28;20294;-45
2022/01/23 06:46:24;;;;;;;7.17;4.70;;;6.80;99.90;;;;;;5031973;28;20249;-46
2022/01/23 06:48:51;;;;;;;10.90;5.20;;;6.80;99.90;;;;;;5048122;28;20260;-47
2022/01/23 06:51:18;;;;;;;8.30;5.07;;;6.80;99.90;;;;;;5052167;28;20226;-49
2022/01/23 06:53:46;;;;;;;12.20;5.13;;;6.80;99.90;;;;;;5038513;28;20291;-45
2022/01/23 06:56:14;;;;;;;9.23;4.47;;;6.80;99.90;;;;;;5049952;28;20238;-48
2022/01/23 06:58:40;;;;;;;7.53;4.70;;;6.80;99.90;;;;;;5044908;28;20858;-46
2022/01/23 07:01:08;;;;;;;9.43;5.83;;;6.80;99.90;;;;;;5034463;28;20242;-47
2022/01/23 07:03:44;;;;;;;9.93;6.10;;;6.80;99.90;;;;;;5045217;28;20203;-49
2022/01/23 07:06:30;;;;;;;12.60;6.67;;;6.80;99.90;;;;;;5039512;28;20475;-48
2022/01/23 07:09:09;;;;;;;12.27;6.77;;;6.80;99.90;;;;;;5042281;28;20287;-48
2022/01/23 07:11:49;;;;;;;8.67;5.83;;;6.80;99.90;;;;;;5052184;28;20199;-45
2022/01/23 07:14:36;;;;;;;12.53;5.77;;;6.80;99.90;;;;;;5047130;28;20203;-48
2022/01/23 07:17:21;;;;;;;16.33;6.93;;;6.80;99.90;;;;;;5031741;28;20218;-47
2022/01/23 07:19:50;;;;;;;20.00;7.47;;;6.80;99.90;;;;;;5050338;28;20703;-50
2022/01/23 07:22:26;;;;;;;13.37;7.13;;;6.80;99.90;;;;;;5035759;28;20198;-47
2022/01/23 07:24:55;;;;;;;10.80;7.20;;;6.70;99.90;;;;;;5054414;28;20225;-49
2022/01/23 07:27:22;;;;;;;15.00;8.00;;;6.80;99.90;;;;;;5044697;28;20229;-47
2022/01/23 07:29:53;;;;;;;13.03;7.90;;;6.80;99.90;;;;;;5046620;28;20785;-45
2022/01/23 07:32:21;;;;;;;12.60;6.83;;;6.80;99.90;;;;;;5027153;28;20257;-48
2022/01/23 07:34:48;;;;;;;13.07;7.70;;;6.80;99.90;;;;;;5048222;28;20230;-46
2022/01/23 07:37:19;;;;;;;11.27;6.50;;;6.80;99.90;;;;;;5045213;28;20219;-45
2022/01/23 07:40:11;;;;;;;10.80;6.70;;;6.80;99.90;;;;;;5045097;28;20296;-48
2022/01/23 07:42:42;;;;;;;8.87;6.37;;;6.80;99.90;;;;;;5049508;28;20924;-46
2022/01/23 07:45:28;;;;;;;16.07;6.80;;;6.80;99.90;;;;;;5049358;28;20985;-46
2022/01/23 07:48:31;;;;;;;11.93;6.43;;;6.80;99.90;;;;;;5031036;28;20214;-46
2022/01/23 07:51:03;;;;;;;10.50;6.20;;;6.80;99.90;;;;;;5047692;28;20634;-46
2022/01/23 07:53:40;;;;;;;12.43;6.57;;;6.80;99.90;;;;;;5046295;28;20295;-45
2022/01/23 07:56:16;;;;;;;13.87;6.67;;;6.80;99.90;;;;;;5047641;28;20322;-47
2022/01/23 07:58:58;;;;;;;15.70;6.37;;;6.80;99.90;;;;;;5053238;28;20202;-45
2022/01/23 08:01:39;;;;;;;8.90;6.20;;;6.80;99.90;;;;;;5049443;28;20282;-47
2022/01/23 08:04:35;;;;;;;10.00;5.77;;;6.80;99.90;;;;;;5038209;28;20199;-44
2022/01/23 08:07:11;;;;;;;11.17;6.30;;;6.80;99.90;;;;;;5042050;28;20211;-46
2022/01/23 08:09:53;;;;;;;10.87;6.10;;;6.80;99.90;;;;;;5045834;28;20550;-44
2022/01/23 08:12:21;;;;;;;10.17;6.07;;;6.90;99.90;;;;;;5044808;28;20195;-43
2022/01/23 08:14:48;;;;;;;14.93;5.90;;;6.90;99.90;;;;;;5038413;28;20245;-48
2022/01/23 08:17:15;;;;;;;13.53;6.50;;;6.90;99.90;;;;;;5046984;28;20219;-49
2022/01/23 08:19:42;;;;;;;16.30;6.13;;;6.90;99.90;;;;;;5032498;28;20218;-45
2022/01/23 08:22:09;;;;;;;13.90;6.40;;;6.90;99.90;;;;;;5042753;28;20206;-45
2022/01/23 08:24:35;;;;;;;10.97;6.13;;;6.90;99.90;;;;;;5049164;28;20198;-45
2022/01/23 08:27:02;;;;;;;9.93;5.97;;;6.90;99.90;;;;;;5047620;28;20212;-46
2022/01/23 08:29:31;;;;;;;11.40;5.37;;;6.90;99.90;;;;;;5048568;28;20195;-50
2022/01/23 08:31:57;;;;;;;15.00;5.70;;;7.00;99.90;;;;;;5048595;28;20203;-45
2022/01/23 08:34:24;;;;;;;9.67;5.37;;;7.00;99.90;;;;;;5041870;28;20210;-44
2022/01/23 08:36:55;;;;;;;7.87;5.93;;;7.00;99.90;;;;;;5039711;28;20226;-47
2022/01/23 08:39:24;;;;;;;10.57;5.30;;;7.00;99.90;;;;;;5036402;28;20225;-44
2022/01/23 08:41:51;;;;;;;15.40;5.90;;;7.00;99.90;;;;;;5051749;28;20195;-45
2022/01/23 08:44:18;;;;;;;16.80;5.87;;;7.00;99.90;;;;;;5035905;28;20202;-46
2022/01/23 08:46:46;;;;;;;8.10;5.37;;;7.00;99.90;;;;;;5055620;28;20219;-45
2022/01/23 08:49:13;;;;;;;11.90;5.90;;;7.00;99.90;;;;;;5048156;28;20277;-47
2022/01/23 08:51:40;;;;;;;11.00;5.87;;;7.00;99.90;;;;;;5040259;28;20210;-47
2022/01/23 08:54:08;;;;;;;10.43;6.63;;;7.00;99.90;;;;;;5047365;28;20225;-47
2022/01/23 08:56:34;;;;;;;16.73;6.47;;;7.00;99.90;;;;;;5046728;28;20226;-45
2022/01/23 08:59:01;;;;;;;19.65;7.40;;;7.00;99.90;;;;;;5051921;28;20195;-45
2022/01/23 09:01:28;;;;;;;14.07;6.43;;;7.10;99.90;;;;;;5054276;28;20417;-44
2022/01/23 09:03:57;;;;;;;14.03;6.17;;;7.10;99.90;;;;;;5057956;28;20217;-44
2022/01/23 09:06:24;;;;;;;22.10;7.37;;;7.10;99.90;;;;;;5040310;28;20939;-47
2022/01/23 09:08:53;;;;;;;17.47;6.83;;;7.10;99.90;;;;;;5052029;28;20202;-47
2022/01/23 09:11:37;;;;;;;13.10;6.73;;;7.10;99.90;;;;;;5043724;28;20215;-46
2022/01/23 09:14:07;;;;;;;11.70;7.27;;;7.10;99.90;;;;;;5053702;28;20547;-45
2022/01/23 09:16:35;;;;;;;13.13;7.60;;;7.10;99.90;;;;;;5051664;28;20219;-44
2022/01/23 09:19:04;;;;;;;19.87;7.33;;;7.10;99.90;;;;;;5051045;28;20218;-46
2022/01/23 09:21:32;;;;;;;14.10;6.90;;;7.10;99.90;;;;;;5042087;28;21732;-45
2022/01/23 09:23:59;;;;;;;16.13;6.10;;;7.10;99.90;;;;;;5047855;28;20212;-46
2022/01/23 09:26:26;;;;;;;17.00;6.53;;;7.10;99.90;;;;;;5051232;28;20815;-46
2022/01/23 09:28:56;;;;;;;10.33;6.93;;;7.10;99.90;;;;;;5047945;28;20682;-45
2022/01/23 09:31:29;;;;;;;16.07;7.23;;;7.10;99.90;;;;;;5054497;28;20200;-48
2022/01/23 09:33:57;;;;;;;11.07;6.57;;;7.20;99.90;;;;;;5053714;28;20270;-46
2022/01/23 09:36:26;;;;;;;15.83;6.37;;;7.20;99.90;;;;;;5049233;28;20211;-45
2022/01/23 09:38:52;;;;;;;14.90;6.30;;;7.20;99.90;;;;;;5040692;28;20214;-45
2022/01/23 09:41:30;;;;;;;11.83;6.10;;;7.20;99.90;;;;;;5045547;28;20222;-45
2022/01/23 09:44:00;;;;;;;12.83;6.57;;;7.20;99.90;;;;;;5052585;28;20210;-49
2022/01/23 09:46:28;;;;;;;10.27;5.10;;;7.20;99.90;;;;;;5045751;28;20222;-45
2022/01/23 09:48:55;;;;;;;9.53;5.03;;;7.20;99.90;;;;;;5052267;28;20195;-44
2022/01/23 09:51:24;;;;;;;8.00;5.17;;;7.30;99.90;;;;;;5054585;28;20356;-48
2022/01/23 09:53:55;;;;;;;9.60;4.63;;;7.30;99.90;;;;;;5042013;28;20210;-44
2022/01/23 09:56:27;;;;;;;10.33;4.40;;;7.30;99.90;;;;;;5043334;28;20222;-45
2022/01/23 09:58:55;;;;;;;12.67;4.90;;;7.30;99.90;;;;;;5045582;28;20372;-46
2022/01/23 10:01:23;;;;;;;11.37;5.63;;;7.30;99.90;;;;;;5038754;28;20265;-44
2022/01/23 10:03:50;;;;;;;9.60;4.37;;;7.30;99.90;;;;;;5050216;28;20211;-46
2022/01/23 10:06:17;;;;;;;10.63;4.53;;;7.30;99.90;;;;;;5041768;28;20255;-46
2022/01/23 10:08:44;;;;;;;13.80;4.93;;;7.30;99.90;;;;;;5037058;28;20465;-46
2022/01/23 10:11:13;;;;;;;13.30;6.13;;;7.30;99.90;;;;;;5054510;28;20191;-44
2022/01/23 10:13:41;;;;;;;20.00;6.03;;;7.30;99.90;;;;;;5048586;28;20199;-46
2022/01/23 10:16:08;;;;;;;12.27;6.03;;;7.30;99.90;;;;;;5045862;28;20700;-45
2022/01/23 10:18:36;;;;;;;17.17;5.73;;;7.30;99.90;;;;;;5042265;28;20211;-44
2022/01/23 10:21:03;;;;;;;17.47;5.77;;;7.40;99.90;;;;;;5044798;28;20215;-48
2022/01/23 10:23:31;;;;;;;11.53;5.60;;;7.40;99.90;;;;;;5033851;28;20207;-48
2022/01/23 10:25:58;;;;;;;15.67;5.60;;;7.40;99.90;;;;;;5053256;28;20222;-46
2022/01/23 10:28:29;;;;;;;18.83;7.10;;;7.40;99.90;;;;;;5048919;28;20905;-48
2022/01/23 10:30:58;;;;;;;12.57;5.87;;;7.40;99.90;;;;;;5048531;28;20268;-44
2022/01/23 10:33:27;;;;;;;20.67;8.80;;;7.40;99.90;;;;;;5042662;28;20206;-44
2022/01/23 10:35:57;;;;;;;19.03;7.17;;;7.40;99.90;;;;;;5052141;28;20218;-47
2022/01/23 10:38:26;;;;;;;17.23;7.70;;;7.50;99.90;;;;;;5049862;28;20191;-46
2022/01/23 10:41:06;;;;;;;21.03;7.77;;;7.50;99.90;;;;;;5038173;28;20612;-47
2022/01/23 10:49:03;;;;;;;17.50;8.63;;;7.50;99.90;;;;;;5042260;28;20244;-46
2022/01/23 10:51:34;;;;;;;24.23;10.23;;;7.60;99.90;;;;;;5054660;28;20197;-44
2022/01/23 10:54:11;;;;;;;27.07;11.47;;;7.60;99.90;;;;;;5041146;28;20668;-47
2022/01/23 10:56:53;;;;;;;17.67;10.33;;;7.60;99.90;;;;;;5049236;28;20232;-46
2022/01/23 10:59:22;;;;;;;20.50;8.53;;;7.60;99.90;;;;;;5046875;28;20206;-44
2022/01/23 11:02:03;;;;;;;13.87;7.43;;;7.50;99.90;;;;;;5051240;28;20222;-44
2022/01/23 11:04:32;;;;;;;15.20;7.97;;;7.50;99.90;;;;;;5043178;28;20257;-49
2022/01/23 11:07:01;;;;;;;22.57;7.50;;;7.60;99.90;;;;;;5054504;28;20195;-50
2022/01/23 11:09:30;;;;;;;11.40;6.57;;;7.60;99.90;;;;;;5053765;28;20572;-44
2022/01/23 11:12:12;;;;;;;15.97;6.23;;;7.60;99.90;;;;;;5038118;28;20206;-47
2022/01/23 11:17:26;;;;;;;8.00;4.97;;;7.70;99.90;;;;;;5048722;28;20202;-43
2022/01/23 11:19:55;;;;;;;11.50;6.03;;;7.80;99.90;;;;;;5040224;28;20215;-44
2022/01/23 11:22:25;;;;;;;9.87;4.83;;;7.80;99.90;;;;;;5055854;28;20196;-45
2022/01/23 11:24:53;;;;;;;11.10;4.77;;;7.90;99.90;;;;;;5045824;28;20272;-48
2022/01/23 11:27:22;;;;;;;10.87;5.30;;;7.90;99.90;;;;;;5042183;28;20230;-43
2022/01/23 11:29:55;;;;;;;13.47;4.67;;;7.90;99.90;;;;;;5048488;28;20195;-48
2022/01/23 11:32:24;;;;;;;16.00;5.20;;;8.00;99.90;;;;;;5055366;28;20230;-44
2022/01/23 11:34:54;;;;;;;13.50;4.73;;;8.00;99.90;;;;;;5041713;28;20642;-47
2022/01/23 11:37:23;;;;;;;9.47;4.83;;;8.10;99.90;;;;;;5048710;28;20215;-44
2022/01/23 11:39:56;;;;;;;16.67;6.07;;;8.10;99.90;;;;;;5040983;28;20195;-52
2022/01/23 11:50:52;;;;;;;5.90;3.40;;;8.10;99.90;;;;;;5040896;28;20277;-47
2022/01/23 11:53:50;;;;;;;6.57;3.50;;;8.10;99.90;;;;;;5045083;28;20734;-49
2022/01/23 11:56:40;;;;;;;9.50;3.50;;;8.10;99.90;;;;;;5048327;28;20582;-51
2022/01/23 11:59:34;;;;;;;10.27;3.13;;;8.10;99.90;;;;;;5049598;28;20198;-52
2022/01/23 12:02:28;;;;;;;7.17;2.23;;;8.10;99.90;;;;;;5049159;28;20214;-51
2022/01/23 12:05:20;;;;;;;5.07;1.80;;;8.10;99.90;;;;;;5035551;28;20237;-47
2022/01/23 12:08:15;;;;;;;7.70;1.83;;;8.10;99.90;;;;;;5046934;28;20195;-50
2022/01/23 12:10:53;;;;;;;6.40;2.20;;;8.10;99.90;;;;;;5046167;28;20199;-52
2022/01/23 12:13:55;;;;;;;7.17;1.90;;;8.10;99.90;;;;;;5041368;28;20202;-49
2022/01/23 12:16:24;;;;;;;8.83;2.27;;;8.20;99.90;;;;;;5045828;28;20656;-50
2022/01/23 12:19:19;;;;;;;3.27;1.17;;;8.30;99.90;;;;;;5049169;28;20272;-52
2022/01/23 12:21:47;;;;;;;1.63;1.10;;;8.30;99.90;;;;;;5037475;28;20234;-50
2022/01/23 12:24:15;;;;;;;5.10;1.53;;;8.30;99.90;;;;;;5047550;28;20203;-49
2022/01/23 12:26:42;;;;;;;6.97;1.47;;;8.30;99.90;;;;;;5044570;28;20222;-51
2022/01/23 12:29:14;;;;;;;5.73;1.63;;;8.40;99.90;;;;;;5037628;28;20206;-48
2022/01/23 12:31:43;;;;;;;5.37;1.23;;;8.40;99.90;;;;;;5045554;28;20213;-46
2022/01/23 12:34:11;;;;;;;3.33;1.10;;;8.40;99.90;;;;;;5052450;28;20190;-45
2022/01/23 12:36:41;;;;;;;3.63;0.80;;;8.40;99.90;;;;;;5047977;28;20730;-48
2022/01/23 12:39:19;;;;;;;3.73;1.00;;;8.30;99.90;;;;;;5043015;28;20208;-47
2022/01/23 12:41:59;;;;;;;3.80;0.87;;;8.30;99.90;;;;;;5050701;28;20283;-51
2022/01/23 12:44:35;;;;;;;4.00;1.03;;;8.30;99.90;;;;;;5047273;28;20243;-48
2022/01/23 12:47:04;;;;;;;1.07;0.70;;;8.20;99.90;;;;;;5054239;28;20197;-46
2022/01/23 12:49:35;;;;;;;5.80;0.90;;;8.20;99.90;;;;;;5050012;28;20565;-50
2022/01/23 12:52:17;;;;;;;3.33;0.90;;;8.20;99.90;;;;;;5041134;28;21423;-48
2022/01/23 12:54:55;;;;;;;4.47;0.80;;;8.20;99.90;;;;;;5043342;28;20229;-50
2022/01/23 12:57:31;;;;;;;2.47;1.10;;;8.20;99.90;;;;;;5057385;28;20195;-49
2022/01/23 13:00:01;;;;;;;3.03;0.73;;;8.20;99.90;;;;;;5042701;28;20305;-44
2022/01/23 13:02:35;;;;;;;6.13;1.00;;;8.20;99.90;;;;;;5054357;28;20214;-47
2022/01/23 13:05:03;;;;;;;3.30;1.03;;;8.20;99.90;;;;;;5044496;28;20233;-47
2022/01/23 13:07:40;;;;;;;2.10;0.93;;;8.10;99.90;;;;;;5052122;28;20667;-50
2022/01/23 13:10:23;;;;;;;1.13;0.70;;;8.10;99.90;;;;;;5052324;28;20951;-45
2022/01/23 13:13:04;;;;;;;2.93;0.50;;;8.10;99.90;;;;;;5046173;28;20203;-50
2022/01/23 13:15:57;;;;;;;2.33;0.90;;;8.00;99.90;;;;;;5043015;28;20223;-49
2022/01/23 13:18:43;;;;;;;3.27;0.90;;;8.00;99.90;;;;;;5051573;28;20286;-49
2022/01/23 13:27:38;;;;;;;4.57;0.63;;;7.90;99.90;;;;;;5002662;28;20291;-50
2022/01/23 13:30:14;;;;;;;4.50;1.40;;;8.00;99.90;;;;;;4996413;28;20213;-52
2022/01/23 13:32:44;;;;;;;3.43;0.73;;;8.00;99.90;;;;;;5025366;28;20277;-48
2022/01/23 13:35:14;;;;;;;2.07;0.87;;;8.10;99.90;;;;;;5050747;28;20700;-45
2022/01/23 13:37:45;;;;;;;3.00;0.83;;;8.10;99.90;;;;;;5046134;28;20285;-45
2022/01/23 13:40:14;;;;;;;2.33;0.80;;;8.20;99.90;;;;;;5048086;28;20203;-46
2022/01/23 13:42:55;;;;;;;4.87;0.90;;;8.20;99.90;;;;;;5039965;28;20219;-49
2022/01/23 13:54:14;;;;;;;5.03;0.83;;;8.20;99.90;;;;;;5045228;28;20236;-45
2022/01/23 13:59:33;;;;;;;2.67;0.73;;;8.20;99.90;;;;;;5051759;28;20203;-44
2022/01/23 14:02:14;;;;;;;4.60;1.00;;;8.10;99.90;;;;;;5038612;28;20215;-45
2022/01/23 14:04:43;;;;;;;1.03;0.70;;;8.10;99.90;;;;;;5058976;28;20199;-44
2022/01/23 14:07:11;;;;;;;3.50;1.17;;;8.10;99.90;;;;;;5043893;28;20241;-46
2022/01/23 14:09:43;;;;;;;3.07;0.80;;;8.10;99.90;;;;;;5046866;28;20203;-49
2022/01/23 14:12:12;;;;;;;2.73;0.70;;;8.10;99.90;;;;;;5047357;28;20207;-45
2022/01/23 14:14:50;;;;;;;2.40;0.93;;;8.00;99.90;;;;;;5051329;28;20206;-49
2022/01/23 14:17:17;;;;;;;4.83;1.10;;;8.00;99.90;;;;;;5036597;28;20218;-44
2022/01/23 14:19:57;;;;;;;2.67;0.70;;;8.00;99.90;;;;;;5052959;28;20221;-45
2022/01/23 14:22:29;;;;;;;2.23;0.43;;;8.00;99.90;;;;;;5048828;28;20226;-44
2022/01/23 14:25:09;;;;;;;4.97;1.30;;;7.90;99.90;;;;;;5039520;28;21445;-44
2022/01/23 14:27:36;;;;;;;0.77;0.60;;;7.90;99.90;;;;;;5051487;28;20210;-44
2022/01/23 14:30:07;;;;;;;2.40;0.53;;;7.90;99.90;;;;;;5047968;28;20191;-49
2022/01/23 14:32:42;;;;;;;2.50;1.00;;;7.90;99.90;;;;;;5049517;28;20233;-49
2022/01/23 14:35:12;;;;;;;2.93;0.97;;;7.90;99.90;;;;;;5051340;28;20214;-44
2022/01/23 14:37:41;;;;;;;1.40;0.77;;;7.90;99.90;;;;;;5045302;28;20216;-47
2022/01/23 14:40:12;;;;;;;3.77;1.30;;;7.80;99.90;;;;;;5051775;28;20931;-44
2022/01/23 14:42:38;;;;;;;3.33;0.97;;;7.80;99.90;;;;;;5049813;28;20223;-45
2022/01/23 14:45:06;;;;;;;2.50;0.87;;;7.80;99.90;;;;;;5054670;28;20213;-46
2022/01/23 14:47:36;;;;;;;2.10;0.70;;;7.80;99.90;;;;;;5053562;28;20195;-47
2022/01/23 14:50:26;;;;;;;3.80;1.00;;;7.80;99.90;;;;;;5042430;28;20250;-49
2022/01/23 14:52:54;;;;;;;2.87;1.00;;;7.80;99.90;;;;;;5040448;28;20189;-43
2022/01/23 14:55:22;;;;;;;4.67;1.00;;;7.80;99.90;;;;;;5048814;28;20222;-46
2022/01/23 14:57:49;;;;;;;2.83;0.90;;;7.80;99.90;;;;;;5046699;28;20656;-43
2022/01/23 15:00:17;;;;;;;6.53;2.00;;;7.70;99.90;;;;;;5049954;28;20675;-44
2022/01/23 15:02:46;;;;;;;4.73;1.13;;;7.70;99.90;;;;;;5041966;28;20268;-44
2022/01/23 15:05:13;;;;;;;2.03;0.97;;;7.70;99.90;;;;;;5040188;28;20710;-45
2022/01/23 15:07:42;;;;;;;2.10;0.97;;;7.70;99.90;;;;;;5045482;28;20196;-48
2022/01/23 15:10:10;;;;;;;4.90;1.53;;;7.70;99.90;;;;;;5048087;28;20199;-51
2022/01/23 15:12:39;;;;;;;1.90;1.00;;;7.70;99.90;;;;;;5041829;28;20225;-53
2022/01/23 15:15:07;;;;;;;2.53;0.80;;;7.70;99.90;;;;;;5044512;28;20210;-50
2022/01/23 15:17:37;;;;;;;7.00;1.50;;;7.70;99.90;;;;;;5048003;28;20199;-50
2022/01/23 15:20:05;;;;;;;2.70;1.40;;;7.60;99.90;;;;;;5044719;28;20212;-47
2022/01/23 15:22:32;;;;;;;2.37;1.10;;;7.60;99.90;;;;;;5038936;28;20227;-50
2022/01/23 15:25:00;;;;;;;2.43;0.90;;;7.60;99.90;;;;;;5049331;28;20225;-47
2022/01/23 15:27:27;;;;;;;3.30;1.43;;;7.60;99.90;;;;;;5044494;28;20512;-46
2022/01/23 15:29:55;;;;;;;1.57;1.20;;;7.60;99.90;;;;;;5042272;28;20272;-47
2022/01/23 15:32:22;;;;;;;3.87;1.20;;;7.60;99.90;;;;;;5046938;28;20191;-49
2022/01/23 15:34:50;;;;;;;2.07;1.17;;;7.60;99.90;;;;;;5052750;28;20226;-48
2022/01/23 15:37:17;;;;;;;1.93;1.30;;;7.60;99.90;;;;;;5040981;28;20199;-52
2022/01/23 15:39:45;;;;;;;5.03;1.50;;;7.60;99.90;;;;;;5045999;28;20230;-50
2022/01/23 15:42:12;;;;;;;2.77;1.70;;;7.50;99.90;;;;;;5029205;28;20219;-48
2022/01/23 15:44:40;;;;;;;3.17;1.00;;;7.50;99.90;;;;;;5050580;28;20199;-52
2022/01/23 15:47:08;;;;;;;6.93;1.60;;;7.50;99.90;;;;;;5044410;28;20230;-52